createdAt,value
2022-10-05T00:01:36.132Z,98327.13
2022-10-05T00:04:23.809Z,98336.38
2022-10-05T00:07:16.093Z,98329.94
2022-10-05T00:09:46.163Z,98327.84
2022-10-05T00:12:23.760Z,98331.81
2022-10-05T00:15:02.651Z,98329.31
2022-10-05T00:17:32.569Z,98325.88
2022-10-05T00:20:00.200Z,98326.28
2022-10-05T00:22:33.612Z,98330.25
2022-10-05T00:25:10.690Z,98335.38
2022-10-05T00:27:39.053Z,98331.50
2022-10-05T00:30:21.619Z,98354.47
2022-10-05T00:32:49.142Z,98354.44
2022-10-05T00:35:19.431Z,98358.94
2022-10-05T00:37:54.616Z,98348.91
2022-10-05T00:40:33.784Z,98340.41
2022-10-05T00:43:40.636Z,98330.97
2022-10-05T00:46:48.031Z,98335.69
2022-10-05T00:49:26.542Z,98352.38
2022-10-05T00:52:13.616Z,98352.38
2022-10-05T00:55:01.133Z,98358.97
2022-10-05T00:57:28.191Z,98354.31
2022-10-05T01:00:14.359Z,98359.34
2022-10-05T01:03:30.331Z,98347.34
2022-10-05T01:06:26.134Z,98352.66
2022-10-05T01:09:47.212Z,98351.44
2022-10-05T01:12:54.681Z,98350.09
2022-10-05T01:15:37.168Z,98346.47
2022-10-05T01:18:26.406Z,98341.44
2022-10-05T01:21:26.517Z,98353.84
2022-10-05T01:24:15.548Z,98341.69
2022-10-05T01:27:35.382Z,98346.44
2022-10-05T01:30:15.945Z,98346.38
2022-10-05T01:32:57.842Z,98346.78
2022-10-05T01:35:46.627Z,98353.94
2022-10-05T01:38:45.846Z,98351.94
2022-10-05T01:41:20.591Z,98344.03
2022-10-05T01:44:01.842Z,98349.75
2022-10-05T01:47:03.388Z,98336.88
2022-10-05T01:49:48.023Z,98335.13
2022-10-05T01:53:05.686Z,98337.22
2022-10-05T01:55:55.166Z,98341.72
2022-10-05T01:58:40.458Z,98333.63
2022-10-05T02:01:59.790Z,98331.19
2022-10-05T02:05:03.320Z,98327.84
2022-10-05T02:07:44.866Z,98327.72
2022-10-05T02:10:59.692Z,98325.34
2022-10-05T02:13:45.076Z,98329.97
2022-10-05T02:16:38.377Z,98332.38
2022-10-05T02:19:16.330Z,98336.41
2022-10-05T02:21:58.862Z,98329.81
2022-10-05T02:24:45.181Z,98334.44
2022-10-05T02:27:33.969Z,98333.88
2022-10-05T02:30:16.329Z,98336.16
2022-10-05T02:33:12.074Z,98327.50
2022-10-05T02:35:51.729Z,98328.66
2022-10-05T02:39:06.461Z,98329.44
2022-10-05T02:42:04.037Z,98331.41
2022-10-05T02:45:14.428Z,98326.97
2022-10-05T02:47:58.591Z,98325.69
2022-10-05T02:50:39.453Z,98326.28
2022-10-05T02:53:32.053Z,98335.72
2022-10-05T02:56:26.507Z,98332.00
2022-10-05T02:59:28.702Z,98325.72
2022-10-05T03:02:38.885Z,98332.31
2022-10-05T03:05:48.244Z,98333.41
2022-10-05T03:08:40.679Z,98320.88
2022-10-05T03:11:28.870Z,98332.09
2022-10-05T03:14:11.830Z,98330.19
2022-10-05T03:17:07.338Z,98326.66
2022-10-05T03:20:13.106Z,98326.66
2022-10-05T03:23:06.521Z,98322.44
2022-10-05T03:26:07.293Z,98326.16
2022-10-05T03:29:01.407Z,98325.41
2022-10-05T03:32:02.529Z,98322.22
2022-10-05T03:34:50.229Z,98317.75
2022-10-05T03:37:46.872Z,98319.44
2022-10-05T03:40:41.870Z,98332.41
2022-10-05T03:44:02.591Z,98335.88
2022-10-05T03:47:02.874Z,98320.19
2022-10-05T03:49:42.121Z,98315.38
2022-10-05T03:52:30.788Z,98322.53
2022-10-05T03:55:24.610Z,98326.81
2022-10-05T03:58:00.432Z,98328.94
2022-10-05T04:00:32.177Z,98324.06
2022-10-05T04:03:45.539Z,98317.06
2022-10-05T04:06:35.175Z,98317.44
2022-10-05T04:09:25.605Z,98318.94
2022-10-05T04:12:43.675Z,98315.44
2022-10-05T04:15:50.902Z,98309.03
2022-10-05T04:18:45.995Z,98317.34
2022-10-05T04:21:46.634Z,98326.91
2022-10-05T04:24:36.228Z,98315.63
2022-10-05T04:27:23.328Z,98319.59
2022-10-05T04:30:06.629Z,98323.41
2022-10-05T04:32:52.394Z,98320.19
2022-10-05T04:36:05.952Z,98315.19
2022-10-05T04:39:07.000Z,98320.38
2022-10-05T04:42:00.683Z,98339.91
2022-10-05T04:45:12.055Z,98330.19
2022-10-05T04:48:13.252Z,98331.78
2022-10-05T04:51:05.226Z,98329.38
2022-10-05T04:54:16.039Z,98332.56
2022-10-05T04:57:05.094Z,98347.09
2022-10-05T04:59:45.176Z,98346.88
2022-10-05T05:02:33.087Z,98350.78
2022-10-05T05:05:32.284Z,98343.06
2022-10-05T05:08:36.982Z,98346.44
2022-10-05T05:11:23.776Z,98348.69
2022-10-05T05:14:35.835Z,98355.66
2022-10-05T05:17:17.252Z,98352.91
2022-10-05T05:20:41.362Z,98352.81
2022-10-05T05:23:48.049Z,98356.03
2022-10-05T05:27:17.721Z,98357.72
2022-10-05T05:30:20.639Z,98359.97
2022-10-05T05:33:27.397Z,98356.72
2022-10-05T05:43:16.661Z,98370.09
2022-10-05T05:46:19.356Z,98356.91
2022-10-05T05:49:51.853Z,98356.47
2022-10-05T05:52:53.633Z,98358.44
2022-10-05T05:56:21.476Z,98361.56
2022-10-05T06:03:14.528Z,98371.28
2022-10-05T06:06:04.418Z,98372.13
2022-10-05T06:09:26.684Z,98387.88
2022-10-05T06:12:22.489Z,98372.88
2022-10-05T06:15:32.649Z,98379.66
2022-10-05T06:18:33.528Z,98379.84
2022-10-05T06:21:48.781Z,98374.44
2022-10-05T06:25:15.293Z,98369.00
2022-10-05T06:28:32.921Z,98379.59
2022-10-05T06:32:04.843Z,98383.13
2022-10-05T06:35:24.372Z,98389.84
2022-10-05T06:38:34.427Z,98384.19
2022-10-05T06:45:31.600Z,98394.75
2022-10-05T06:48:48.325Z,98403.47
2022-10-05T06:51:45.758Z,98383.31
2022-10-05T06:55:01.611Z,98381.28
2022-10-05T06:58:37.135Z,98387.09
2022-10-05T07:02:08.186Z,98392.94
2022-10-05T07:05:25.437Z,98394.44
2022-10-05T07:08:02.819Z,98401.44
2022-10-05T07:10:54.100Z,98401.56
2022-10-05T07:13:55.401Z,98403.44
2022-10-05T07:16:36.315Z,98404.84
2022-10-05T07:19:44.923Z,98400.31
2022-10-05T07:23:13.364Z,98415.88
2022-10-05T07:27:02.599Z,98422.91
2022-10-05T07:29:54.382Z,98429.25
2022-10-05T07:32:50.894Z,98426.91
2022-10-05T07:36:14.791Z,98430.13
2022-10-05T07:39:23.540Z,98426.66
2022-10-05T07:42:19.599Z,98423.22
2022-10-05T07:45:12.006Z,98416.69
2022-10-05T07:48:33.427Z,98421.13
2022-10-05T07:51:16.108Z,98415.31
2022-10-05T07:54:18.807Z,98428.53
2022-10-05T07:56:57.807Z,98426.66
2022-10-05T07:59:39.686Z,98428.59
2022-10-05T08:02:59.147Z,98429.66
2022-10-05T08:05:41.271Z,98423.50
2022-10-05T08:08:18.194Z,98424.72
2022-10-05T08:11:19.027Z,98423.03
2022-10-05T08:14:38.034Z,98419.22
2022-10-05T08:17:35.404Z,98425.28
2022-10-05T08:20:36.674Z,98429.28
2022-10-05T08:23:39.500Z,98424.53
2022-10-05T08:27:18.265Z,98427.31
2022-10-05T08:30:16.500Z,98405.63
2022-10-05T08:33:06.844Z,98407.59
2022-10-05T08:36:19.090Z,98417.00
2022-10-05T08:38:52.309Z,98426.38
2022-10-05T08:42:18.128Z,98413.00
2022-10-05T08:45:24.703Z,98433.38
2022-10-05T08:48:21.148Z,98417.66
2022-10-05T08:51:45.965Z,98416.66
2022-10-05T08:54:46.710Z,98413.88
2022-10-05T08:57:55.645Z,98414.50
2022-10-05T09:01:00.582Z,98410.50
2022-10-05T09:04:03.779Z,98412.69
2022-10-05T09:07:02.686Z,98416.16
2022-10-05T09:10:12.899Z,98417.06
2022-10-05T09:13:28.334Z,98422.25
2022-10-05T09:16:55.121Z,98419.75
2022-10-05T09:20:20.880Z,98418.59
2022-10-05T09:23:16.313Z,98432.78
2022-10-05T09:26:27.504Z,98417.13
2022-10-05T09:29:40.974Z,98418.94
2022-10-05T09:32:23.164Z,98424.06
2022-10-05T09:35:29.857Z,98420.22
2022-10-05T09:38:43.714Z,98427.53
2022-10-05T09:41:54.335Z,98422.88
2022-10-05T09:44:50.122Z,98422.38
2022-10-05T09:47:29.135Z,98423.00
2022-10-05T09:50:52.093Z,98413.94
2022-10-05T09:53:46.811Z,98415.03
2022-10-05T09:56:53.868Z,98434.19
2022-10-05T10:00:11.491Z,98422.44
2022-10-05T10:03:09.903Z,98417.59
2022-10-05T10:06:13.035Z,98414.25
2022-10-05T10:09:37.858Z,98426.38
2022-10-05T10:13:08.749Z,98433.41
2022-10-05T10:16:07.593Z,98414.28
2022-10-05T10:19:25.611Z,98422.94
2022-10-05T10:22:42.825Z,98423.41
2022-10-05T10:25:38.101Z,98420.63
2022-10-05T10:28:43.358Z,98409.44
2022-10-05T10:32:03.265Z,98409.75
2022-10-05T10:34:40.284Z,98415.91
2022-10-05T10:37:29.989Z,98410.59
2022-10-05T10:40:55.366Z,98402.88
2022-10-05T10:44:04.741Z,98401.50
2022-10-05T10:47:25.037Z,98406.63
2022-10-05T10:50:25.974Z,98407.84
2022-10-05T10:53:40.152Z,98403.06
2022-10-05T10:56:48.387Z,98405.81
2022-10-05T10:59:37.073Z,98402.69
2022-10-05T11:02:39.652Z,98398.09
2022-10-05T11:05:47.999Z,98392.56
2022-10-05T11:09:04.687Z,98391.75
2022-10-05T11:12:04.579Z,98380.44
2022-10-05T11:15:00.338Z,98385.56
2022-10-05T11:18:21.731Z,98395.81
2022-10-05T11:21:38.886Z,98386.72
2022-10-05T11:24:45.976Z,98400.03
2022-10-05T11:27:44.464Z,98373.56
2022-10-05T11:31:17.837Z,98383.13
2022-10-05T11:34:20.637Z,98362.91
2022-10-05T11:37:35.312Z,98378.28
2022-10-05T11:41:08.840Z,98374.75
2022-10-05T11:44:19.470Z,98365.75
2022-10-05T11:47:51.097Z,98384.19
2022-10-05T11:51:16.081Z,98372.38
2022-10-05T11:54:29.524Z,98346.16
2022-10-05T11:57:41.430Z,98343.94
2022-10-05T12:00:45.241Z,98358.97
2022-10-05T12:03:45.641Z,98357.22
2022-10-05T12:06:53.760Z,98364.81
2022-10-05T12:10:05.951Z,98345.31
2022-10-05T12:13:10.034Z,98342.19
2022-10-05T12:16:00.208Z,98320.44
2022-10-05T12:19:00.889Z,98312.06
2022-10-05T12:21:42.488Z,98359.88
2022-10-05T12:24:43.176Z,98347.03
2022-10-05T12:27:30.054Z,98360.53
2022-10-05T12:30:29.685Z,98337.69
2022-10-05T12:33:26.117Z,98361.19
2022-10-05T12:37:05.238Z,98363.41
2022-10-05T12:39:49.141Z,98355.13
2022-10-05T12:42:51.574Z,98340.78
2022-10-05T12:46:19.652Z,98347.38
2022-10-05T12:49:30.227Z,98346.69
2022-10-05T12:52:06.096Z,98361.41
2022-10-05T12:55:02.341Z,98355.75
2022-10-05T12:57:56.796Z,98351.91
2022-10-05T13:00:38.243Z,98347.47
2022-10-05T13:03:33.455Z,98342.34
2022-10-05T13:06:08.101Z,98338.94
2022-10-05T13:09:35.512Z,98321.31
2022-10-05T13:12:27.145Z,98336.91
2022-10-05T13:15:20.183Z,98334.00
2022-10-05T13:18:18.260Z,98315.66
2022-10-05T13:20:59.816Z,98311.91
2022-10-05T13:24:02.472Z,98311.00
2022-10-05T13:26:41.501Z,98306.56
2022-10-05T13:29:11.595Z,98314.19
2022-10-05T13:31:51.063Z,98305.69
2022-10-05T13:34:45.883Z,98313.09
2022-10-05T13:37:35.590Z,98314.34
2022-10-05T13:40:29.605Z,98303.28
2022-10-05T13:43:26.295Z,98329.16
2022-10-05T13:46:26.578Z,98309.53
2022-10-05T13:49:30.411Z,98309.03
2022-10-05T13:52:28.345Z,98311.38
2022-10-05T13:55:18.678Z,98314.75
2022-10-05T13:57:55.355Z,98322.06
2022-10-05T14:00:27.091Z,98324.34
2022-10-05T14:02:58.010Z,98324.19
2022-10-05T14:06:02.293Z,98319.84
2022-10-05T14:08:35.697Z,98303.03
2022-10-05T14:11:40.390Z,98310.53
2022-10-05T14:14:10.549Z,98317.16
2022-10-05T14:16:53.297Z,98320.31
2022-10-05T14:19:40.874Z,98314.59
2022-10-05T14:22:24.796Z,98319.25
2022-10-05T14:25:12.969Z,98314.19
2022-10-05T14:28:44.114Z,98329.63
2022-10-05T14:31:37.135Z,98329.34
2022-10-05T14:34:59.140Z,98317.84
2022-10-05T14:37:43.455Z,98335.91
2022-10-05T14:40:38.386Z,98325.63
2022-10-05T14:43:20.487Z,98329.72
2022-10-05T14:45:55.953Z,98324.34
2022-10-05T14:48:28.086Z,98331.03
2022-10-05T14:51:03.550Z,98333.16
2022-10-05T14:53:58.821Z,98320.88
2022-10-05T14:57:16.160Z,98333.56
2022-10-05T15:00:14.590Z,98326.16
2022-10-05T15:03:19.084Z,98334.41
2022-10-05T15:05:59.383Z,98328.03
2022-10-05T15:08:50.026Z,98322.25
2022-10-05T15:11:55.596Z,98320.63
2022-10-05T15:14:30.283Z,98310.56
2022-10-05T15:17:12.471Z,98310.22
2022-10-05T15:19:54.430Z,98312.75
2022-10-05T15:23:00.574Z,98317.94
2022-10-05T15:26:30.305Z,98327.09
2022-10-05T15:29:30.296Z,98336.44
2022-10-05T15:32:39.204Z,98330.41
2022-10-05T15:35:37.645Z,98323.16
2022-10-05T15:38:26.692Z,98334.56
2022-10-05T15:41:05.270Z,98340.41
2022-10-05T15:44:06.463Z,98331.53
2022-10-05T15:46:57.242Z,98334.19
2022-10-05T15:49:57.361Z,98332.53
2022-10-05T15:53:12.153Z,98340.25
2022-10-05T15:55:52.553Z,98347.72
2022-10-05T15:58:41.558Z,98332.84
2022-10-05T16:01:40.416Z,98344.22
2022-10-05T16:04:32.012Z,98343.38
2022-10-05T16:07:21.962Z,98344.50
2022-10-05T16:10:24.101Z,98349.50
2022-10-05T16:13:05.150Z,98343.88
2022-10-05T16:15:49.271Z,98355.34
2022-10-05T16:18:43.483Z,98359.19
2022-10-05T16:22:01.690Z,98348.56
2022-10-05T16:25:02.037Z,98354.72
2022-10-05T16:28:05.845Z,98357.19
2022-10-05T16:31:31.279Z,98364.22
2022-10-05T16:34:46.960Z,98383.34
2022-10-05T16:37:16.538Z,98385.69
2022-10-05T16:40:14.482Z,98395.00
2022-10-05T16:43:31.124Z,98404.72
2022-10-05T16:46:40.315Z,98405.53
2022-10-05T16:49:50.089Z,98410.25
2022-10-05T16:52:23.838Z,98416.50
2022-10-05T16:55:27.152Z,98415.94
2022-10-05T16:57:57.880Z,98422.72
2022-10-05T17:01:00.074Z,98424.59
2022-10-05T17:04:21.102Z,98432.19
2022-10-05T17:07:25.762Z,98440.19
2022-10-05T17:10:31.306Z,98438.28
2022-10-05T17:13:29.324Z,98441.44
2022-10-05T17:16:41.536Z,98445.34
2022-10-05T17:19:48.796Z,98424.28
2022-10-05T17:22:54.042Z,98435.56
2022-10-05T17:25:54.276Z,98433.34
2022-10-05T17:28:39.556Z,98430.59
2022-10-05T17:31:23.181Z,98438.50
2022-10-05T17:34:18.832Z,98438.34
2022-10-05T17:37:32.115Z,98450.09
2022-10-05T17:39:59.674Z,98455.88
2022-10-05T17:42:26.991Z,98453.81
2022-10-05T17:45:20.553Z,98461.91
2022-10-05T17:51:12.940Z,98460.03
2022-10-05T17:54:04.555Z,98457.53
2022-10-05T17:56:54.542Z,98466.06
2022-10-05T17:59:46.121Z,98474.81
2022-10-05T18:02:35.273Z,98476.00
2022-10-05T18:05:21.165Z,98467.53
2022-10-05T18:08:17.545Z,98474.75
2022-10-05T18:11:12.878Z,98469.88
2022-10-05T18:13:56.268Z,98461.88
2022-10-05T18:17:12.003Z,98467.09
2022-10-05T18:19:42.788Z,98464.75
2022-10-05T18:22:19.381Z,98463.50
2022-10-05T18:25:30.696Z,98471.47
2022-10-05T18:28:19.202Z,98465.72
2022-10-05T18:31:22.357Z,98475.06
2022-10-05T18:33:52.230Z,98484.94
2022-10-05T18:36:39.397Z,98480.44
2022-10-05T18:39:37.203Z,98485.06
2022-10-05T18:42:23.155Z,98486.19
2022-10-05T18:44:55.077Z,98480.97
2022-10-05T18:48:14.751Z,98479.78
2022-10-05T18:51:04.659Z,98476.41
2022-10-05T18:53:47.351Z,98477.50
2022-10-05T18:56:41.270Z,98480.00
2022-10-05T18:59:47.515Z,98478.50
2022-10-05T19:02:40.664Z,98468.53
2022-10-05T19:05:52.089Z,98474.81
2022-10-05T19:09:00.033Z,98478.19
2022-10-05T19:11:56.444Z,98482.69
2022-10-05T19:14:41.622Z,98482.25
2022-10-05T19:17:49.890Z,98472.84
2022-10-05T19:21:06.018Z,98475.91
2022-10-05T19:23:51.417Z,98484.50
2022-10-05T19:26:52.867Z,98483.47
2022-10-05T19:29:53.176Z,98486.94
2022-10-05T19:32:44.960Z,98485.84
2022-10-05T19:35:30.059Z,98485.31
2022-10-05T19:38:52.680Z,98487.88
2022-10-05T19:41:52.363Z,98483.50
2022-10-05T19:45:19.026Z,98493.72
2022-10-05T19:48:47.668Z,98501.75
2022-10-05T19:51:30.597Z,98501.28
2022-10-05T19:54:16.746Z,98502.00
2022-10-05T19:57:02.274Z,98498.91
2022-10-05T19:59:32.391Z,98515.00
2022-10-05T20:02:00.217Z,98520.00
2022-10-05T20:04:49.674Z,98520.06
2022-10-05T20:07:25.983Z,98515.66
2022-10-05T20:09:58.911Z,98518.94
2022-10-05T20:12:52.573Z,98524.31
2022-10-05T20:15:48.491Z,98527.75
2022-10-05T20:19:02.489Z,98526.56
2022-10-05T20:21:43.656Z,98526.88
2022-10-05T20:24:19.548Z,98531.69
2022-10-05T20:30:58.029Z,98513.75
2022-10-05T20:33:29.587Z,98520.69
2022-10-05T20:35:57.635Z,98514.31
2022-10-05T20:38:26.168Z,98513.47
2022-10-05T20:40:53.537Z,98514.84
2022-10-05T20:43:20.562Z,98521.03
2022-10-05T20:45:47.829Z,98508.34
2022-10-05T20:48:18.972Z,98506.41
2022-10-05T20:50:48.925Z,98504.47
2022-10-05T20:53:16.101Z,98504.13
2022-10-05T20:55:43.616Z,98504.78
2022-10-05T20:58:11.582Z,98502.84
2022-10-05T21:00:57.421Z,98512.78
2022-10-05T21:03:26.323Z,98512.78
2022-10-05T21:05:56.383Z,98512.50
2022-10-05T21:08:23.637Z,98515.03
2022-10-05T21:10:50.855Z,98526.81
2022-10-05T21:13:19.755Z,98518.50
2022-10-05T21:15:50.240Z,98513.34
2022-10-05T21:18:20.600Z,98514.09
2022-10-05T21:20:47.964Z,98515.06
2022-10-05T21:23:15.232Z,98521.91
2022-10-05T21:25:42.559Z,98510.94
2022-10-05T21:28:33.672Z,98515.94
2022-10-05T21:31:01.237Z,98509.44
2022-10-05T21:33:31.858Z,98521.75
2022-10-05T21:36:00.057Z,98517.22
2022-10-05T21:38:31.630Z,98513.22
2022-10-05T21:40:59.013Z,98534.88
2022-10-05T21:43:27.565Z,98539.97
2022-10-05T21:45:56.587Z,98524.09
2022-10-05T21:48:31.178Z,98519.28
2022-10-05T21:51:00.300Z,98513.84
2022-10-05T21:53:37.754Z,98518.06
2022-10-05T21:56:11.484Z,98515.53
2022-10-05T21:58:40.906Z,98523.16
2022-10-05T22:01:08.758Z,98519.09
2022-10-05T22:03:36.136Z,98527.50
2022-10-05T22:06:04.321Z,98525.34
2022-10-05T22:08:33.575Z,98526.19
2022-10-05T22:11:15.903Z,98517.66
2022-10-05T22:13:51.164Z,98526.16
2022-10-05T22:16:24.321Z,98528.88
2022-10-05T22:18:53.719Z,98531.38
2022-10-05T22:21:21.912Z,98535.56
2022-10-05T22:23:52.270Z,98537.53
2022-10-05T22:29:06.505Z,98551.09
2022-10-05T22:31:33.801Z,98554.25
2022-10-05T22:34:01.461Z,98548.56
2022-10-05T22:36:34.050Z,98540.41
2022-10-05T22:39:03.673Z,98530.81
2022-10-05T22:41:30.857Z,98536.88
2022-10-05T22:43:57.840Z,98533.09
2022-10-05T22:46:25.165Z,98541.88
2022-10-05T22:48:52.375Z,98537.09
2022-10-05T22:51:19.700Z,98532.97
2022-10-05T22:53:46.779Z,98524.88
2022-10-05T22:56:17.390Z,98522.66
2022-10-05T22:58:45.912Z,98521.69
2022-10-05T23:01:17.395Z,98524.22
2022-10-05T23:03:45.606Z,98519.91
2022-10-05T23:06:17.851Z,98518.28
2022-10-05T23:08:46.184Z,98515.41
2022-10-05T23:11:22.004Z,98510.22
2022-10-05T23:13:51.389Z,98504.97
2022-10-05T23:16:23.003Z,98510.53
2022-10-05T23:18:53.080Z,98503.75
2022-10-05T23:21:23.328Z,98505.00
2022-10-05T23:23:51.432Z,98508.59
2022-10-05T23:26:23.882Z,98508.31
2022-10-05T23:28:52.162Z,98511.38
2022-10-05T23:31:23.308Z,98516.91
2022-10-05T23:33:51.608Z,98514.50
2022-10-05T23:36:25.721Z,98523.88
2022-10-05T23:38:52.822Z,98534.31
2022-10-05T23:41:20.840Z,98535.91
2022-10-05T23:43:48.455Z,98522.81
2022-10-05T23:46:19.872Z,98534.41
2022-10-05T23:48:47.083Z,98530.72
2022-10-05T23:51:15.650Z,98528.06
2022-10-05T23:53:42.876Z,98532.22
2022-10-05T23:56:09.847Z,98532.38
2022-10-05T23:58:37.169Z,98535.50
